createdAt,value
2023-02-04T00:00:20.287Z,99666.19
2023-02-04T00:02:47.811Z,99662.50
2023-02-04T00:05:17.852Z,99693.31
2023-02-04T00:07:44.899Z,99699.94
2023-02-04T00:10:12.068Z,99709.72
2023-02-04T00:12:39.218Z,99703.25
2023-02-04T00:15:06.716Z,99711.53
2023-02-04T00:17:33.797Z,99744.81
2023-02-04T00:20:00.834Z,99750.91
2023-02-04T00:22:29.163Z,99757.56
2023-02-04T00:24:56.598Z,99756.41
2023-02-04T00:27:23.689Z,99770.63
2023-02-04T00:29:50.758Z,99754.53
2023-02-04T00:32:17.953Z,99769.50
2023-02-04T00:34:45.068Z,99769.84
2023-02-04T00:37:12.053Z,99773.75
2023-02-04T00:39:39.038Z,99780.59
2023-02-04T00:42:06.640Z,99784.53
2023-02-04T00:44:33.926Z,99805.22
2023-02-04T00:47:00.922Z,99808.22
2023-02-04T00:49:27.956Z,99815.28
2023-02-04T00:51:55.089Z,99825.41
2023-02-04T00:54:22.201Z,99834.16
2023-02-04T00:56:49.219Z,99843.25
2023-02-04T00:59:16.353Z,99855.38
2023-02-04T01:01:43.967Z,99858.78
2023-02-04T01:04:11.327Z,99863.28
2023-02-04T01:06:38.432Z,99863.09
2023-02-04T01:09:06.250Z,99887.69
2023-02-04T01:11:33.783Z,99887.22
2023-02-04T01:14:01.134Z,99893.19
2023-02-04T01:16:28.299Z,99897.53
2023-02-04T01:18:56.067Z,99909.41
2023-02-04T01:21:24.326Z,99899.16
2023-02-04T01:23:51.782Z,99904.84
2023-02-04T01:26:19.878Z,99931.75
2023-02-04T01:28:47.123Z,99935.78
2023-02-04T01:31:15.025Z,99945.53
2023-02-04T01:33:42.363Z,99947.81
2023-02-04T01:36:10.385Z,99965.47
2023-02-04T01:38:37.459Z,99965.78
2023-02-04T01:41:05.781Z,99960.41
2023-02-04T01:43:34.194Z,99981.66
2023-02-04T01:46:02.793Z,99986.88
2023-02-04T01:48:30.618Z,99996.47
2023-02-04T01:51:08.872Z,100007.03
2023-02-04T01:53:37.565Z,100026.72
2023-02-04T01:56:28.580Z,100036.78
2023-02-04T01:58:57.470Z,100038.44
2023-02-04T02:01:47.284Z,100047.19
2023-02-04T02:04:26.522Z,100046.00
2023-02-04T02:06:58.927Z,100063.88
2023-02-04T02:09:31.116Z,100058.81
2023-02-04T02:11:58.556Z,100070.34
2023-02-04T02:14:25.701Z,100095.78
2023-02-04T02:16:52.964Z,100095.38
2023-02-04T02:19:32.461Z,100101.78
2023-02-04T02:22:13.608Z,100115.69
2023-02-04T02:24:40.658Z,100125.06
2023-02-04T02:27:11.486Z,100148.88
2023-02-04T02:29:41.520Z,100153.44
2023-02-04T02:32:10.896Z,100164.38
2023-02-04T02:34:39.552Z,100174.72
2023-02-04T02:37:11.216Z,100186.09
2023-02-04T02:39:40.416Z,100190.69
2023-02-04T02:42:07.766Z,100208.19
2023-02-04T02:44:34.924Z,100216.44
2023-02-04T02:47:01.988Z,100213.53
2023-02-04T02:49:31.680Z,100221.53
2023-02-04T02:51:59.162Z,100237.53
2023-02-04T02:54:29.014Z,100251.88
2023-02-04T02:56:56.868Z,100259.66
2023-02-04T02:59:25.225Z,100266.28
2023-02-04T03:01:58.645Z,100268.13
2023-02-04T03:04:28.776Z,100265.69
2023-02-04T03:06:56.424Z,100278.56
2023-02-04T03:09:26.597Z,100288.97
2023-02-04T03:11:54.386Z,100295.63
2023-02-04T03:14:24.294Z,100300.41
2023-02-04T03:16:54.446Z,100310.00
2023-02-04T03:19:23.550Z,100314.63
2023-02-04T03:21:50.806Z,100334.88
2023-02-04T03:24:18.435Z,100341.31
2023-02-04T03:26:45.615Z,100351.03
2023-02-04T03:29:13.182Z,100350.56
2023-02-04T03:31:40.442Z,100365.03
2023-02-04T03:34:07.872Z,100382.47
2023-02-04T03:36:35.031Z,100398.84
2023-02-04T03:39:02.560Z,100395.13
2023-02-04T03:41:30.540Z,100399.53
2023-02-04T03:43:57.572Z,100405.63
2023-02-04T03:46:25.964Z,100418.09
2023-02-04T03:48:53.122Z,100417.84
2023-02-04T03:51:20.427Z,100432.09
2023-02-04T03:53:47.482Z,100449.94
2023-02-04T03:56:14.614Z,100459.13
2023-02-04T03:58:41.667Z,100463.63
2023-02-04T04:01:08.687Z,100470.09
2023-02-04T04:03:35.728Z,100476.28
2023-02-04T04:06:05.346Z,100480.50
2023-02-04T04:08:35.716Z,100490.44
2023-02-04T04:11:02.852Z,100505.25
2023-02-04T04:13:29.851Z,100508.53
2023-02-04T04:15:56.964Z,100513.81
2023-02-04T04:18:24.122Z,100518.69
2023-02-04T04:20:51.155Z,100531.91
2023-02-04T04:23:18.204Z,100532.59
2023-02-04T04:25:45.208Z,100540.59
2023-02-04T04:28:12.278Z,100561.63
2023-02-04T04:30:39.493Z,100576.19
2023-02-04T04:33:06.563Z,100580.34
2023-02-04T04:35:34.833Z,100590.41
2023-02-04T04:38:02.902Z,100602.00
2023-02-04T04:40:30.213Z,100604.44
2023-02-04T04:42:57.480Z,100612.13
2023-02-04T04:45:24.562Z,100620.63
2023-02-04T04:47:51.648Z,100621.84
2023-02-04T04:50:18.754Z,100622.06
2023-02-04T04:52:45.802Z,100626.94
2023-02-04T04:55:12.841Z,100637.13
2023-02-04T04:57:40.021Z,100657.16
2023-02-04T05:00:08.989Z,100656.47
2023-02-04T05:02:35.990Z,100662.50
2023-02-04T05:05:04.362Z,100664.38
2023-02-04T05:07:31.443Z,100670.34
2023-02-04T05:09:58.430Z,100677.59
2023-02-04T05:12:25.500Z,100688.72
2023-02-04T05:14:52.566Z,100703.38
2023-02-04T05:17:19.678Z,100698.75
2023-02-04T05:19:46.684Z,100712.00
2023-02-04T05:22:13.678Z,100715.28
2023-02-04T05:24:40.727Z,100723.72
2023-02-04T05:27:07.729Z,100724.88
2023-02-04T05:29:34.753Z,100740.28
2023-02-04T05:32:01.841Z,100742.00
2023-02-04T05:34:28.904Z,100750.22
2023-02-04T05:36:55.912Z,100755.84
2023-02-04T05:39:22.980Z,100767.69
2023-02-04T05:41:50.014Z,100774.72
2023-02-04T05:44:17.037Z,100781.84
2023-02-04T05:46:44.177Z,100794.84
2023-02-04T05:49:11.410Z,100801.84
2023-02-04T05:51:38.408Z,100805.13
2023-02-04T05:54:05.437Z,100824.50
2023-02-04T05:56:32.473Z,100828.28
2023-02-04T05:58:59.496Z,100845.56
2023-02-04T06:01:26.520Z,100847.75
2023-02-04T06:03:53.630Z,100867.09
2023-02-04T06:06:20.712Z,100872.50
2023-02-04T06:08:47.697Z,100879.00
2023-02-04T06:11:14.669Z,100886.69
2023-02-04T06:13:41.731Z,100894.34
2023-02-04T06:16:08.964Z,100901.50
2023-02-04T06:18:35.991Z,100911.91
2023-02-04T06:21:04.742Z,100920.34
2023-02-04T06:23:34.341Z,100927.50
2023-02-04T06:26:02.622Z,100938.81
2023-02-04T06:28:30.478Z,100932.31
2023-02-04T06:30:57.742Z,100944.44
2023-02-04T06:33:24.837Z,100956.28
2023-02-04T06:35:52.125Z,100965.47
2023-02-04T06:38:19.679Z,100968.25
2023-02-04T06:40:53.547Z,100979.16
2023-02-04T06:43:21.840Z,100989.03
2023-02-04T06:45:51.032Z,101001.00
2023-02-04T06:48:18.830Z,100998.38
2023-02-04T06:50:46.050Z,100996.28
2023-02-04T06:53:13.143Z,101000.88
2023-02-04T06:55:40.338Z,101026.84
2023-02-04T06:58:07.408Z,101022.94
2023-02-04T07:00:34.742Z,101032.53
2023-02-04T07:03:02.035Z,101030.47
2023-02-04T07:05:29.174Z,101048.66
2023-02-04T07:07:56.543Z,101055.97
2023-02-04T07:10:23.600Z,101062.84
2023-02-04T07:12:50.617Z,101063.59
2023-02-04T07:15:17.866Z,101073.00
2023-02-04T07:17:44.910Z,101076.31
2023-02-04T07:20:12.678Z,101077.63
2023-02-04T07:22:39.849Z,101084.41
2023-02-04T07:25:07.359Z,101084.13
2023-02-04T07:27:34.402Z,101074.41
2023-02-04T07:30:01.507Z,101085.91
2023-02-04T07:32:32.782Z,101088.50
2023-02-04T07:35:02.895Z,101107.13
2023-02-04T07:37:29.986Z,101097.34
2023-02-04T07:39:57.001Z,101101.84
2023-02-04T07:42:24.076Z,101109.16
2023-02-04T07:44:51.149Z,101114.09
2023-02-04T07:47:18.139Z,101118.81
2023-02-04T07:49:45.148Z,101119.19
2023-02-04T07:52:12.412Z,101116.59
2023-02-04T07:54:39.406Z,101119.91
2023-02-04T07:57:06.437Z,101122.53
2023-02-04T07:59:33.454Z,101135.91
2023-02-04T08:02:01.975Z,101143.47
2023-02-04T08:04:29.284Z,101138.78
2023-02-04T08:06:57.177Z,101156.81
2023-02-04T08:09:27.182Z,101153.38
2023-02-04T08:11:54.302Z,101144.31
2023-02-04T08:14:21.485Z,101154.38
2023-02-04T08:16:48.606Z,101166.50
2023-02-04T08:19:19.052Z,101173.97
2023-02-04T08:21:47.345Z,101172.31
2023-02-04T08:24:15.733Z,101162.25
2023-02-04T08:26:44.031Z,101177.31
2023-02-04T08:29:11.132Z,101172.84
2023-02-04T08:31:39.212Z,101190.16
2023-02-04T08:34:07.393Z,101195.00
2023-02-04T08:36:34.808Z,101196.03
2023-02-04T08:39:01.898Z,101182.59
2023-02-04T08:41:28.893Z,101201.47
2023-02-04T08:43:55.909Z,101198.34
2023-02-04T08:46:22.973Z,101198.47
2023-02-04T08:48:50.108Z,101197.00
2023-02-04T08:51:17.214Z,101188.53
2023-02-04T08:53:44.279Z,101194.28
2023-02-04T08:56:15.852Z,101193.56
2023-02-04T08:58:44.240Z,101189.53
2023-02-04T09:01:11.498Z,101185.03
2023-02-04T09:03:39.321Z,101189.34
2023-02-04T09:06:07.618Z,101181.66
2023-02-04T09:08:34.805Z,101185.94
2023-02-04T09:11:02.013Z,101188.69
2023-02-04T09:13:29.240Z,101192.59
2023-02-04T09:15:56.377Z,101193.28
2023-02-04T09:18:25.315Z,101207.00
2023-02-04T09:20:53.206Z,101205.38
2023-02-04T09:23:20.519Z,101208.81
2023-02-04T09:25:48.301Z,101215.25
2023-02-04T09:28:17.178Z,101226.22
2023-02-04T09:30:46.921Z,101230.66
2023-02-04T09:33:17.092Z,101239.56
2023-02-04T09:35:44.484Z,101248.91
2023-02-04T09:38:11.596Z,101248.84
2023-02-04T09:40:46.927Z,101248.88
2023-02-04T09:43:22.277Z,101256.06
2023-02-04T09:45:49.721Z,101264.16
2023-02-04T09:48:17.336Z,101273.06
2023-02-04T09:50:45.018Z,101274.06
2023-02-04T09:53:19.354Z,101289.44
2023-02-04T09:55:48.202Z,101277.84
2023-02-04T09:58:19.273Z,101287.81
2023-02-04T10:01:01.527Z,101283.25
2023-02-04T10:03:28.673Z,101293.13
2023-02-04T10:05:55.709Z,101297.84
2023-02-04T10:08:31.400Z,101300.72
2023-02-04T10:10:58.448Z,101296.28
2023-02-04T10:13:34.868Z,101295.38
2023-02-04T10:16:11.870Z,101293.63
2023-02-04T10:18:39.228Z,101296.34
2023-02-04T10:21:29.274Z,101296.47
2023-02-04T10:23:59.085Z,101304.59
2023-02-04T10:26:29.904Z,101301.75
2023-02-04T10:29:04.143Z,101303.59
2023-02-04T10:31:39.814Z,101313.06
2023-02-04T10:34:32.249Z,101312.41
2023-02-04T10:36:59.335Z,101317.09
2023-02-04T10:39:29.136Z,101318.06
2023-02-04T10:41:59.063Z,101320.53
2023-02-04T10:44:36.018Z,101332.28
2023-02-04T10:47:19.029Z,101341.41
2023-02-04T10:50:03.509Z,101343.13
2023-02-04T10:52:43.970Z,101332.31
2023-02-04T10:55:18.242Z,101331.78
2023-02-04T10:57:48.606Z,101338.22
2023-02-04T11:00:24.586Z,101342.13
2023-02-04T11:03:15.306Z,101332.25
2023-02-04T11:05:42.486Z,101340.81
2023-02-04T11:08:24.980Z,101347.16
2023-02-04T11:11:04.114Z,101332.44
2023-02-04T11:13:57.582Z,101332.91
2023-02-04T11:16:29.165Z,101332.38
2023-02-04T11:19:11.511Z,101336.81
2023-02-04T11:21:38.361Z,101336.13
2023-02-04T11:24:14.128Z,101343.09
2023-02-04T11:26:51.589Z,101342.88
2023-02-04T11:29:38.902Z,101342.03
2023-02-04T11:32:28.730Z,101340.22
2023-02-04T11:35:12.115Z,101349.09
2023-02-04T11:37:43.661Z,101360.84
2023-02-04T11:40:37.658Z,101355.88
2023-02-04T11:43:13.487Z,101351.97
2023-02-04T11:45:41.227Z,101352.47
2023-02-04T11:48:19.892Z,101353.75
2023-02-04T11:51:02.766Z,101357.19
2023-02-04T11:53:34.260Z,101352.47
2023-02-04T11:56:01.513Z,101355.16
2023-02-04T11:58:32.324Z,101357.19
2023-02-04T12:00:59.780Z,101352.88
2023-02-04T12:03:34.442Z,101356.91
2023-02-04T12:06:01.611Z,101366.44
2023-02-04T12:08:36.223Z,101352.38
2023-02-04T12:11:27.470Z,101357.00
2023-02-04T12:13:56.506Z,101358.97
2023-02-04T12:16:24.732Z,101369.03
2023-02-04T12:18:52.191Z,101367.97
2023-02-04T12:21:19.778Z,101371.41
2023-02-04T12:23:46.806Z,101374.66
2023-02-04T12:26:14.085Z,101368.25
2023-02-04T12:28:41.140Z,101381.88
2023-02-04T12:31:08.219Z,101375.34
2023-02-04T12:33:35.266Z,101386.47
2023-02-04T12:36:02.437Z,101380.19
2023-02-04T12:38:29.472Z,101388.19
2023-02-04T12:40:56.440Z,101390.38
2023-02-04T12:43:23.496Z,101400.91
2023-02-04T12:45:50.466Z,101394.44
2023-02-04T12:48:17.644Z,101401.16
2023-02-04T12:50:44.668Z,101394.63
2023-02-04T12:53:11.677Z,101396.25
2023-02-04T12:55:38.779Z,101402.84
2023-02-04T12:58:05.818Z,101401.91
2023-02-04T13:00:32.900Z,101411.13
2023-02-04T13:03:00.600Z,101414.91
2023-02-04T13:05:28.495Z,101421.88
2023-02-04T13:07:55.487Z,101418.44
2023-02-04T13:10:24.004Z,101417.69
2023-02-04T13:12:51.790Z,101430.75
2023-02-04T13:15:19.035Z,101419.63
2023-02-04T13:17:46.017Z,101427.94
2023-02-04T13:20:13.244Z,101428.53
2023-02-04T13:22:40.425Z,101430.13
2023-02-04T13:25:07.761Z,101433.25
2023-02-04T13:27:34.935Z,101432.41
2023-02-04T13:30:02.784Z,101431.91
2023-02-04T13:32:29.903Z,101438.47
2023-02-04T13:34:56.946Z,101437.81
2023-02-04T13:37:23.942Z,101439.97
2023-02-04T13:39:50.909Z,101428.53
2023-02-04T13:42:17.963Z,101453.63
2023-02-04T13:44:44.955Z,101457.94
2023-02-04T13:47:12.049Z,101469.03
2023-02-04T13:49:39.073Z,101473.50
2023-02-04T13:52:06.088Z,101478.31
2023-02-04T13:54:33.159Z,101481.63
2023-02-04T13:57:00.237Z,101493.22
2023-02-04T13:59:27.270Z,101488.56
2023-02-04T14:01:54.284Z,101498.50
2023-02-04T14:04:21.269Z,101500.66
2023-02-04T14:06:48.318Z,101500.66
2023-02-04T14:09:15.306Z,101506.03
2023-02-04T14:11:42.295Z,101504.88
2023-02-04T14:14:09.440Z,101502.13
2023-02-04T14:16:37.961Z,101505.91
2023-02-04T14:19:06.607Z,101511.69
2023-02-04T14:21:33.819Z,101508.84
2023-02-04T14:24:01.617Z,101503.56
2023-02-04T14:26:28.653Z,101508.22
2023-02-04T14:28:55.709Z,101501.94
2023-02-04T14:31:23.148Z,101505.72
2023-02-04T14:33:50.491Z,101504.81
2023-02-04T14:36:17.797Z,101513.00
2023-02-04T14:38:44.916Z,101512.97
2023-02-04T14:41:16.310Z,101514.34
2023-02-04T14:43:43.393Z,101515.25
2023-02-04T14:46:10.484Z,101515.56
2023-02-04T14:48:37.510Z,101517.25
2023-02-04T14:51:05.507Z,101519.97
2023-02-04T14:53:32.502Z,101532.81
2023-02-04T14:55:59.534Z,101528.78
2023-02-04T14:58:27.986Z,101528.09
2023-02-04T15:00:55.720Z,101534.25
2023-02-04T15:03:23.255Z,101530.91
2023-02-04T15:05:50.270Z,101545.66
2023-02-04T15:08:17.452Z,101552.31
2023-02-04T15:10:44.448Z,101546.97
2023-02-04T15:13:11.999Z,101557.47
2023-02-04T15:15:38.991Z,101551.16
2023-02-04T15:18:06.381Z,101562.44
2023-02-04T15:20:33.756Z,101564.56
2023-02-04T15:23:01.083Z,101571.09
2023-02-04T15:25:28.125Z,101566.06
2023-02-04T15:27:55.703Z,101567.81
2023-02-04T15:30:22.823Z,101568.97
2023-02-04T15:32:49.832Z,101574.84
2023-02-04T15:35:16.882Z,101569.16
2023-02-04T15:37:43.869Z,101582.09
2023-02-04T15:40:11.935Z,101593.44
2023-02-04T15:42:38.917Z,101589.44
2023-02-04T15:45:07.080Z,101596.91
2023-02-04T15:47:34.292Z,101607.75
2023-02-04T15:50:01.392Z,101600.56
2023-02-04T15:52:29.366Z,101601.75
2023-02-04T15:54:56.468Z,101612.97
2023-02-04T15:57:23.463Z,101609.31
2023-02-04T15:59:50.498Z,101608.69
2023-02-04T16:02:17.640Z,101619.88
2023-02-04T16:04:45.475Z,101620.66
2023-02-04T16:07:12.820Z,101625.22
2023-02-04T16:09:40.092Z,101622.06
2023-02-04T16:12:07.356Z,101628.59
2023-02-04T16:14:34.345Z,101629.91
2023-02-04T16:17:01.901Z,101633.16
2023-02-04T16:19:29.276Z,101640.34
2023-02-04T16:21:56.427Z,101641.13
2023-02-04T16:24:23.577Z,101646.06
2023-02-04T16:26:50.666Z,101646.56
2023-02-04T16:29:17.716Z,101652.28
2023-02-04T16:31:44.842Z,101647.72
2023-02-04T16:34:11.878Z,101636.19
2023-02-04T16:36:38.909Z,101652.88
2023-02-04T16:39:05.914Z,101652.22
2023-02-04T16:41:33.007Z,101647.75
2023-02-04T16:44:00.350Z,101656.84
2023-02-04T16:46:28.766Z,101656.03
2023-02-04T16:48:56.347Z,101671.19
2023-02-04T16:51:24.888Z,101666.69
2023-02-04T16:53:52.163Z,101678.19
2023-02-04T16:56:19.657Z,101678.69
2023-02-04T16:58:47.151Z,101693.28
2023-02-04T17:01:17.125Z,101689.84
2023-02-04T17:03:44.780Z,101697.09
2023-02-04T17:06:16.305Z,101694.97
2023-02-04T17:08:43.597Z,101704.38
2023-02-04T17:11:29.033Z,101698.34
2023-02-04T17:14:02.551Z,101687.94
2023-02-04T17:16:30.582Z,101700.81
2023-02-04T17:18:57.762Z,101705.47
2023-02-04T17:21:27.308Z,101708.22
2023-02-04T17:23:56.236Z,101717.56
2023-02-04T17:26:24.383Z,101716.66
2023-02-04T17:28:51.465Z,101718.22
2023-02-04T17:31:18.551Z,101722.50
2023-02-04T17:33:46.030Z,101721.31
2023-02-04T17:36:15.277Z,101725.94
2023-02-04T17:38:42.456Z,101734.94
2023-02-04T17:41:09.534Z,101737.91
2023-02-04T17:43:37.341Z,101735.22
2023-02-04T17:46:04.641Z,101740.41
2023-02-04T17:48:32.067Z,101741.16
2023-02-04T17:50:59.160Z,101747.78
2023-02-04T17:53:26.360Z,101752.13
2023-02-04T17:55:53.388Z,101754.75
2023-02-04T17:58:25.891Z,101755.88
2023-02-04T18:00:55.515Z,101765.50
2023-02-04T18:03:26.872Z,101758.66
2023-02-04T18:05:56.858Z,101765.63
2023-02-04T18:08:31.722Z,101767.16
2023-02-04T18:10:58.844Z,101768.56
2023-02-04T18:13:35.141Z,101768.13
2023-02-04T18:16:19.459Z,101769.41
2023-02-04T18:18:46.534Z,101766.16
2023-02-04T18:21:33.204Z,101771.06
2023-02-04T18:24:07.317Z,101776.47
2023-02-04T18:26:35.069Z,101767.53
2023-02-04T18:29:26.358Z,101778.94
2023-02-04T18:32:19.317Z,101772.91
2023-02-04T18:34:49.657Z,101776.28
2023-02-04T18:37:34.024Z,101778.19
2023-02-04T18:40:20.013Z,101780.03
2023-02-04T18:42:47.651Z,101788.19
2023-02-04T18:45:28.463Z,101804.41
2023-02-04T18:48:01.716Z,101809.22
2023-02-04T18:50:35.152Z,101804.09
2023-02-04T18:53:24.359Z,101813.88
2023-02-04T18:55:55.243Z,101806.13
2023-02-04T18:58:36.441Z,101808.13
2023-02-04T19:01:27.833Z,101816.66
2023-02-04T19:04:03.520Z,101815.59
2023-02-04T19:06:43.346Z,101815.91
2023-02-04T19:09:10.352Z,101819.41
2023-02-04T19:11:46.853Z,101826.09
2023-02-04T19:14:39.060Z,101819.69
2023-02-04T19:17:20.840Z,101822.50
2023-02-04T19:20:17.742Z,101826.50
2023-02-04T19:22:53.784Z,101826.13
2023-02-04T19:25:36.282Z,101831.19
2023-02-04T19:28:33.423Z,101844.97
2023-02-04T19:31:08.240Z,101837.34
2023-02-04T19:33:42.798Z,101845.28
2023-02-04T19:36:47.998Z,101845.72
2023-02-04T19:39:38.568Z,101847.75
2023-02-04T19:42:30.331Z,101852.50
2023-02-04T19:45:01.315Z,101849.59
2023-02-04T19:47:43.141Z,101854.03
2023-02-04T19:50:13.392Z,101860.13
2023-02-04T19:53:06.798Z,101854.31
2023-02-04T19:55:45.468Z,101859.38
2023-02-04T19:58:18.267Z,101859.22
2023-02-04T20:01:02.220Z,101864.88
2023-02-04T20:03:43.076Z,101861.84
2023-02-04T20:06:09.938Z,101860.31
2023-02-04T20:08:58.847Z,101861.97
2023-02-04T20:11:33.014Z,101878.84
2023-02-04T20:14:15.039Z,101880.47
2023-02-04T20:16:59.281Z,101877.00
2023-02-04T20:19:34.868Z,101887.84
2023-02-04T20:22:20.985Z,101880.50
2023-02-04T20:24:55.697Z,101884.66
2023-02-04T20:27:38.749Z,101889.81
2023-02-04T20:30:09.298Z,101879.09
2023-02-04T20:32:44.118Z,101882.66
2023-02-04T20:35:13.823Z,101884.03
2023-02-04T20:37:49.687Z,101887.72
2023-02-04T20:40:27.146Z,101888.91
2023-02-04T20:43:01.541Z,101888.03
2023-02-04T20:45:55.620Z,101905.28
2023-02-04T20:48:36.681Z,101919.06
2023-02-04T20:51:05.004Z,101913.72
2023-02-04T20:53:58.264Z,101924.25
2023-02-04T20:56:37.698Z,101923.50
2023-02-04T20:59:26.772Z,101929.91
2023-02-04T21:01:53.931Z,101931.66
2023-02-04T21:04:38.482Z,101932.09
2023-02-04T21:07:19.391Z,101938.97
2023-02-04T21:09:47.803Z,101941.28
2023-02-04T21:12:15.425Z,101939.91
2023-02-04T21:14:42.745Z,101934.06
2023-02-04T21:17:09.765Z,101959.03
2023-02-04T21:19:37.033Z,101948.63
2023-02-04T21:22:04.116Z,101954.28
2023-02-04T21:24:31.981Z,101952.28
2023-02-04T21:26:59.127Z,101964.22
2023-02-04T21:29:26.267Z,101950.16
2023-02-04T21:31:54.779Z,101974.00
2023-02-04T21:34:21.941Z,101967.28
2023-02-04T21:36:48.950Z,101971.56
2023-02-04T21:39:16.067Z,101968.22
2023-02-04T21:41:43.719Z,101978.91
2023-02-04T21:44:10.768Z,101973.22
2023-02-04T21:46:37.908Z,101980.88
2023-02-04T21:49:05.453Z,101986.84
2023-02-04T21:51:32.551Z,101986.81
2023-02-04T21:54:00.865Z,101990.16
2023-02-04T21:56:28.376Z,102005.25
2023-02-04T21:58:56.415Z,102007.84
2023-02-04T22:01:23.550Z,102011.53
2023-02-04T22:03:50.625Z,102014.84
2023-02-04T22:06:17.689Z,102008.00
2023-02-04T22:08:44.768Z,102009.56
2023-02-04T22:11:11.770Z,102009.97
2023-02-04T22:13:57.647Z,102017.91
2023-02-04T22:16:24.750Z,102019.06
2023-02-04T22:18:51.812Z,102015.44
2023-02-04T22:21:18.790Z,102014.78
2023-02-04T22:23:45.800Z,102013.06
2023-02-04T22:26:12.883Z,102024.81
2023-02-04T22:28:39.927Z,102015.03
2023-02-04T22:31:07.141Z,102025.44
2023-02-04T22:33:34.185Z,102035.38
2023-02-04T22:36:01.154Z,102036.72
2023-02-04T22:38:28.159Z,102034.63
2023-02-04T22:40:55.192Z,102032.97
2023-02-04T22:43:22.375Z,102029.72
2023-02-04T22:45:49.365Z,102046.03
2023-02-04T22:48:16.468Z,102045.63
2023-02-04T22:50:43.464Z,102044.22
2023-02-04T22:53:10.543Z,102046.16
2023-02-04T22:55:37.538Z,102054.13
2023-02-04T22:58:04.554Z,102063.91
2023-02-04T23:00:32.117Z,102061.22
2023-02-04T23:02:59.175Z,102072.94
2023-02-04T23:05:26.223Z,102071.44
2023-02-04T23:07:53.290Z,102074.31
2023-02-04T23:10:20.288Z,102081.69
2023-02-04T23:12:47.348Z,102073.22
2023-02-04T23:15:14.343Z,102085.03
2023-02-04T23:17:41.383Z,102086.94
2023-02-04T23:20:08.982Z,102093.56
2023-02-04T23:22:36.131Z,102090.38
2023-02-04T23:25:06.215Z,102093.66
2023-02-04T23:27:33.547Z,102084.91
2023-02-04T23:30:00.581Z,102092.81
2023-02-04T23:32:28.627Z,102096.34
2023-02-04T23:34:55.663Z,102095.75
2023-02-04T23:37:22.702Z,102105.03
2023-02-04T23:39:49.804Z,102113.41
2023-02-04T23:42:16.828Z,102112.75
2023-02-04T23:44:43.849Z,102105.72
2023-02-04T23:47:10.889Z,102107.16
2023-02-04T23:49:37.904Z,102108.47
2023-02-04T23:52:07.225Z,102110.56
2023-02-04T23:54:35.504Z,102120.88
2023-02-04T23:57:02.613Z,102112.00
2023-02-04T23:59:29.686Z,102118.19
